createdAt,value
2022-11-20T00:01:55.439Z,24.40
2022-11-20T00:04:25.477Z,24.00
2022-11-20T00:06:55.559Z,24.30
2022-11-20T00:09:25.584Z,23.50
2022-11-20T00:11:55.779Z,20.70
2022-11-20T00:14:25.882Z,22.70
2022-11-20T00:16:55.926Z,21.10
2022-11-20T00:19:26.010Z,19.90
2022-11-20T00:21:56.883Z,19.00
2022-11-20T00:24:26.896Z,18.00
2022-11-20T00:26:56.961Z,18.20
2022-11-20T00:29:26.950Z,18.50
2022-11-20T00:31:57.011Z,17.00
2022-11-20T00:34:26.996Z,17.50
2022-11-20T00:36:56.882Z,17.40
2022-11-20T00:39:26.861Z,17.10
2022-11-20T00:41:57.088Z,15.90
2022-11-20T00:44:26.690Z,17.50
2022-11-20T00:46:56.206Z,18.10
2022-11-20T00:49:26.308Z,17.10
2022-11-20T00:51:55.949Z,16.70
2022-11-20T00:54:25.177Z,16.30
2022-11-20T00:56:56.919Z,16.40
2022-11-20T00:59:27.563Z,16.10
2022-11-20T01:01:57.642Z,14.30
2022-11-20T01:04:26.584Z,12.30
2022-11-20T01:06:56.733Z,12.30
2022-11-20T01:09:26.740Z,12.90
2022-11-20T01:11:57.554Z,4.10
2022-11-20T01:14:29.726Z,3.00
2022-11-20T01:16:59.740Z,2.20
2022-11-20T01:19:29.855Z,2.50
2022-11-20T01:22:00.106Z,2.40
2022-11-20T01:24:30.300Z,2.00
2022-11-20T01:27:00.408Z,2.50
2022-11-20T01:29:30.637Z,2.00
2022-11-20T01:32:01.073Z,3.10
2022-11-20T01:34:31.592Z,3.10
2022-11-20T01:37:01.728Z,1.70
2022-11-20T01:39:31.881Z,1.80
2022-11-20T01:42:21.922Z,2.70
2022-11-20T01:44:52.744Z,2.00
2022-11-20T01:47:46.427Z,1.30
2022-11-20T01:50:35.546Z,1.70
2022-11-20T01:53:13.179Z,2.60
2022-11-20T01:55:53.762Z,2.70
2022-11-20T01:58:33.717Z,3.30
2022-11-20T02:01:05.586Z,3.40
2022-11-20T02:03:36.199Z,3.40
2022-11-20T02:06:27.341Z,3.10
2022-11-20T02:08:56.687Z,3.60
2022-11-20T02:11:27.282Z,3.20
2022-11-20T02:13:57.347Z,3.60
2022-11-20T02:16:30.885Z,2.80
2022-11-20T02:19:03.539Z,2.30
2022-11-20T02:21:37.555Z,1.90
2022-11-20T02:24:11.275Z,1.90
2022-11-20T02:26:52.866Z,1.60
2022-11-20T02:29:40.432Z,1.50
2022-11-20T02:32:20.615Z,1.40
2022-11-20T02:34:51.178Z,1.90
2022-11-20T02:37:22.374Z,2.00
2022-11-20T02:39:53.793Z,1.90
2022-11-20T02:42:24.006Z,1.50
2022-11-20T02:44:54.491Z,1.50
2022-11-20T02:47:24.960Z,1.10
2022-11-20T02:49:55.226Z,1.10
2022-11-20T02:52:26.321Z,1.10
2022-11-20T02:54:55.502Z,0.90
2022-11-20T02:57:25.010Z,0.90
2022-11-20T02:59:55.530Z,1.20
2022-11-20T03:02:25.937Z,1.30
2022-11-20T03:04:55.889Z,1.20
2022-11-20T03:07:24.750Z,1.60
2022-11-20T03:09:55.366Z,1.50
2022-11-20T03:12:26.181Z,1.60
2022-11-20T03:14:57.005Z,2.20
2022-11-20T03:17:27.527Z,1.80
2022-11-20T03:19:57.353Z,2.00
2022-11-20T03:22:30.091Z,2.30
2022-11-20T03:25:00.783Z,1.50
2022-11-20T03:27:35.156Z,1.60
2022-11-20T03:30:06.829Z,1.80
2022-11-20T03:32:39.663Z,1.80
2022-11-20T03:35:10.792Z,1.70
2022-11-20T03:37:39.651Z,1.80
2022-11-20T03:40:10.633Z,2.00
2022-11-20T03:42:49.134Z,2.10
2022-11-20T03:45:20.201Z,2.20
2022-11-20T03:47:50.831Z,2.50
2022-11-20T03:50:20.412Z,2.90
2022-11-20T03:52:50.791Z,2.40
2022-11-20T03:55:21.429Z,2.10
2022-11-20T03:57:50.303Z,2.10
2022-11-20T04:00:20.464Z,2.00
2022-11-20T04:02:50.580Z,2.60
2022-11-20T04:05:20.801Z,2.60
2022-11-20T04:07:51.185Z,2.80
2022-11-20T04:10:21.540Z,3.30
2022-11-20T04:12:51.651Z,5.30
2022-11-20T04:15:21.770Z,4.60
2022-11-20T04:17:52.045Z,5.00
2022-11-20T04:20:22.235Z,4.60
2022-11-20T04:22:56.071Z,5.50
2022-11-20T04:25:26.149Z,5.60
2022-11-20T04:27:56.956Z,5.00
2022-11-20T04:30:27.159Z,5.40
2022-11-20T04:32:57.264Z,5.10
2022-11-20T04:35:27.504Z,4.80
2022-11-20T04:37:56.389Z,4.80
2022-11-20T04:40:26.593Z,5.70
2022-11-20T04:42:57.143Z,5.70
2022-11-20T04:45:27.215Z,5.50
2022-11-20T04:47:57.158Z,5.70
2022-11-20T04:50:25.924Z,5.50
2022-11-20T04:52:56.478Z,5.40
2022-11-20T04:55:26.928Z,5.70
2022-11-20T04:57:56.683Z,5.70
2022-11-20T05:00:27.128Z,5.70
2022-11-20T05:02:57.948Z,6.50
2022-11-20T05:05:28.772Z,5.60
2022-11-20T05:07:59.743Z,6.00
2022-11-20T05:10:29.790Z,5.60
2022-11-20T05:12:59.735Z,6.10
2022-11-20T05:15:30.304Z,6.00
2022-11-20T05:18:00.640Z,5.60
2022-11-20T05:20:30.778Z,7.30
2022-11-20T05:23:00.756Z,6.60
2022-11-20T05:25:30.737Z,7.00
2022-11-20T05:28:00.796Z,5.70
2022-11-20T05:30:30.750Z,5.00
2022-11-20T05:33:00.714Z,4.80
2022-11-20T05:35:30.224Z,4.00
2022-11-20T05:38:00.104Z,4.60
2022-11-20T05:40:30.189Z,5.00
2022-11-20T05:43:00.935Z,5.60
2022-11-20T05:45:30.188Z,5.30
2022-11-20T05:48:03.948Z,5.70
2022-11-20T05:50:36.546Z,5.90
2022-11-20T05:53:06.723Z,5.70
2022-11-20T05:55:36.801Z,5.90
2022-11-20T05:58:06.406Z,6.30
2022-11-20T06:00:37.093Z,6.10
2022-11-20T06:03:07.034Z,5.30
2022-11-20T06:05:36.834Z,5.00
2022-11-20T06:08:06.454Z,8.40
2022-11-20T06:10:36.023Z,8.60
2022-11-20T06:13:05.235Z,9.00
2022-11-20T06:15:34.096Z,8.40
2022-11-20T06:18:03.035Z,8.10
2022-11-20T06:20:31.896Z,11.60
2022-11-20T06:23:00.716Z,8.40
2022-11-20T06:25:29.582Z,15.20
2022-11-20T06:27:58.382Z,14.30
2022-11-20T06:30:27.239Z,13.80
2022-11-20T06:32:56.121Z,7.70
2022-11-20T06:35:25.095Z,5.30
2022-11-20T06:37:53.925Z,5.80
2022-11-20T06:40:22.852Z,4.80
2022-11-20T06:42:51.663Z,6.90
2022-11-20T06:45:20.521Z,13.80
2022-11-20T06:47:49.545Z,15.50
2022-11-20T06:50:18.562Z,7.00
2022-11-20T06:52:47.369Z,7.00
2022-11-20T06:55:16.369Z,5.10
2022-11-20T06:57:45.223Z,3.40
2022-11-20T07:00:15.037Z,3.70
2022-11-20T07:02:43.875Z,2.70
2022-11-20T07:05:12.738Z,4.60
2022-11-20T07:07:41.673Z,7.30
2022-11-20T07:10:11.368Z,8.30
2022-11-20T07:12:40.235Z,5.90
2022-11-20T07:15:09.610Z,6.70
2022-11-20T07:17:38.443Z,6.40
2022-11-20T07:20:08.549Z,10.00
2022-11-20T07:22:37.615Z,7.50
2022-11-20T07:25:07.211Z,6.50
2022-11-20T07:27:36.267Z,6.40
2022-11-20T07:30:06.148Z,6.80
2022-11-20T07:32:34.952Z,7.40
2022-11-20T07:35:03.974Z,6.90
2022-11-20T07:37:35.863Z,6.30
2022-11-20T07:40:05.509Z,5.80
2022-11-20T07:42:34.343Z,3.60
2022-11-20T07:45:04.467Z,4.60
2022-11-20T07:47:38.091Z,6.80
2022-11-20T07:50:07.391Z,9.70
2022-11-20T07:52:36.335Z,7.20
2022-11-20T07:55:06.350Z,4.90
2022-11-20T07:57:35.154Z,2.90
2022-11-20T08:00:10.527Z,3.30
2022-11-20T08:02:43.161Z,6.80
2022-11-20T08:05:12.704Z,4.90
2022-11-20T08:07:45.008Z,5.10
2022-11-20T08:10:17.282Z,5.80
2022-11-20T08:13:10.793Z,4.50
2022-11-20T08:15:41.512Z,4.40
2022-11-20T08:21:06.094Z,7.50
2022-11-20T08:23:34.839Z,7.20
2022-11-20T08:26:03.679Z,7.40
2022-11-20T08:28:32.515Z,7.70
2022-11-20T08:31:02.681Z,6.60
2022-11-20T08:33:33.995Z,6.80
2022-11-20T08:36:07.212Z,7.30
2022-11-20T08:38:36.016Z,6.30
2022-11-20T08:41:24.846Z,6.20
2022-11-20T08:44:05.370Z,6.90
2022-11-20T08:46:39.906Z,6.70
2022-11-20T08:49:11.095Z,4.90
2022-11-20T08:51:40.533Z,2.40
2022-11-20T08:54:09.814Z,3.30
2022-11-20T08:56:41.911Z,2.50
2022-11-20T08:59:36.717Z,2.20
2022-11-20T09:02:01.862Z,2.80
2022-11-20T09:04:31.381Z,2.80
2022-11-20T09:07:02.492Z,2.80
2022-11-20T09:09:32.622Z,2.00
2022-11-20T09:12:02.235Z,1.30
2022-11-20T09:14:31.912Z,1.60
2022-11-20T09:17:01.048Z,1.90
2022-11-20T09:19:36.958Z,2.50
2022-11-20T09:22:05.995Z,2.70
2022-11-20T09:24:34.975Z,1.80
2022-11-20T09:27:06.072Z,2.20
2022-11-20T09:29:35.025Z,2.20
2022-11-20T09:32:04.016Z,3.00
2022-11-20T09:34:33.048Z,2.70
2022-11-20T09:37:06.251Z,2.10
2022-11-20T09:39:40.283Z,1.90
2022-11-20T09:42:23.383Z,1.80
2022-11-20T09:45:41.635Z,1.50
2022-11-20T09:48:37.081Z,2.70
2022-11-20T09:51:37.689Z,4.20
2022-11-20T09:54:22.205Z,4.30
2022-11-20T09:57:03.815Z,6.10
2022-11-20T09:59:45.585Z,5.40
2022-11-20T10:02:39.061Z,2.30
2022-11-20T10:05:20.156Z,3.00
2022-11-20T10:07:56.700Z,3.80
2022-11-20T10:10:33.146Z,3.00
2022-11-20T10:13:20.448Z,2.30
2022-11-20T10:16:33.570Z,1.60
2022-11-20T10:19:16.675Z,1.20
2022-11-20T10:22:27.082Z,1.40
2022-11-20T10:25:15.392Z,1.90
2022-11-20T10:30:28.739Z,2.80
2022-11-20T10:33:15.644Z,3.10
2022-11-20T10:35:53.359Z,3.50
2022-11-20T10:38:44.640Z,4.50
2022-11-20T10:41:33.113Z,3.90
2022-11-20T10:44:43.569Z,5.00
2022-11-20T10:47:20.114Z,3.20
2022-11-20T10:49:55.592Z,3.30
2022-11-20T10:52:27.623Z,2.60
2022-11-20T10:55:27.893Z,3.10
2022-11-20T10:58:12.843Z,2.60
2022-11-20T11:00:42.193Z,3.30
2022-11-20T11:03:30.868Z,2.70
2022-11-20T11:06:04.155Z,3.60
2022-11-20T11:08:39.051Z,3.00
2022-11-20T11:11:23.666Z,2.90
2022-11-20T11:13:53.100Z,3.10
2022-11-20T11:16:28.494Z,2.90
2022-11-20T11:19:09.481Z,2.90
2022-11-20T11:21:44.786Z,3.60
2022-11-20T11:24:42.318Z,3.40
2022-11-20T11:27:19.285Z,3.90
2022-11-20T11:29:48.709Z,3.90
2022-11-20T11:32:22.106Z,2.80
2022-11-20T11:35:05.230Z,2.10
2022-11-20T11:37:41.112Z,2.40
2022-11-20T11:40:28.062Z,2.80
2022-11-20T11:43:06.997Z,2.30
2022-11-20T11:45:35.936Z,2.60
2022-11-20T11:48:09.777Z,1.10
2022-11-20T11:50:38.626Z,0.80
2022-11-20T11:53:21.826Z,0.80
2022-11-20T11:56:12.721Z,0.80
2022-11-20T11:58:53.367Z,0.60
2022-11-20T12:01:55.216Z,1.10
2022-11-20T12:04:48.144Z,0.90
2022-11-20T12:07:47.012Z,1.30
2022-11-20T12:10:21.774Z,1.50
2022-11-20T12:13:26.125Z,1.00
2022-11-20T12:15:56.479Z,1.10
2022-11-20T12:18:26.998Z,1.30
2022-11-20T12:21:58.453Z,1.30
2022-11-20T12:24:52.207Z,2.60
2022-11-20T12:27:46.873Z,3.00
2022-11-20T12:30:23.737Z,3.90
2022-11-20T12:33:22.334Z,3.20
2022-11-20T12:36:19.961Z,3.30
2022-11-20T12:39:14.802Z,2.40
2022-11-20T12:42:38.575Z,2.60
2022-11-20T12:45:30.628Z,2.80
2022-11-20T12:48:27.671Z,2.30
2022-11-20T12:51:32.877Z,2.30
2022-11-20T12:54:13.202Z,4.00
2022-11-20T12:56:54.366Z,3.60
2022-11-20T13:00:15.351Z,3.40
2022-11-20T13:03:10.537Z,2.50
2022-11-20T13:05:53.313Z,3.20
2022-11-20T13:08:29.080Z,3.30
2022-11-20T13:11:04.106Z,3.70
2022-11-20T13:14:11.255Z,3.60
2022-11-20T13:16:54.120Z,3.90
2022-11-20T13:19:24.706Z,3.70
2022-11-20T13:21:54.653Z,4.80
2022-11-20T13:24:32.995Z,6.20
2022-11-20T13:27:03.589Z,6.50
2022-11-20T13:29:35.787Z,8.40
2022-11-20T13:32:16.654Z,7.90
2022-11-20T13:34:58.318Z,11.20
2022-11-20T13:37:39.450Z,9.30
2022-11-20T13:40:14.289Z,8.80
2022-11-20T13:42:56.347Z,11.40
2022-11-20T13:45:32.011Z,8.00
2022-11-20T13:48:07.774Z,23.70
2022-11-20T13:51:07.202Z,6.80
2022-11-20T13:53:37.199Z,3.70
2022-11-20T13:56:36.287Z,1.70
2022-11-20T13:59:37.478Z,1.40
2022-11-20T14:02:20.524Z,1.10
2022-11-20T14:04:54.602Z,0.90
2022-11-20T14:07:37.309Z,1.10
2022-11-20T14:10:20.061Z,1.10
2022-11-20T14:12:50.609Z,0.90
2022-11-20T14:15:33.350Z,0.90
2022-11-20T14:18:15.522Z,0.90
2022-11-20T14:20:46.505Z,1.20
2022-11-20T14:23:29.968Z,2.20
2022-11-20T14:26:01.008Z,3.40
2022-11-20T14:28:32.585Z,2.70
2022-11-20T14:31:02.626Z,1.90
2022-11-20T14:33:34.976Z,2.00
2022-11-20T14:36:05.393Z,1.40
2022-11-20T14:38:35.756Z,1.00
2022-11-20T14:41:16.884Z,0.60
2022-11-20T14:43:58.152Z,0.70
2022-11-20T14:46:31.540Z,0.50
2022-11-20T14:49:04.943Z,0.60
2022-11-20T14:51:44.004Z,0.70
2022-11-20T14:54:17.424Z,0.90
2022-11-20T14:57:03.114Z,1.00
2022-11-20T14:59:35.665Z,1.30
2022-11-20T15:02:10.095Z,1.20
2022-11-20T15:05:04.759Z,1.60
2022-11-20T15:07:37.320Z,1.50
2022-11-20T15:10:11.225Z,1.80
2022-11-20T15:12:50.959Z,3.90
2022-11-20T15:15:38.035Z,4.70
2022-11-20T15:18:18.675Z,4.20
2022-11-20T15:20:50.147Z,5.20
2022-11-20T15:23:21.156Z,3.10
2022-11-20T15:25:51.624Z,3.50
2022-11-20T15:28:31.087Z,3.40
2022-11-20T15:31:01.905Z,2.90
2022-11-20T15:33:33.186Z,3.70
2022-11-20T15:36:03.620Z,3.50
2022-11-20T15:38:34.554Z,3.70
2022-11-20T15:41:04.935Z,4.40
2022-11-20T15:43:34.468Z,4.70
2022-11-20T15:46:08.055Z,4.80
2022-11-20T15:48:47.400Z,4.90
2022-11-20T15:51:21.148Z,5.20
2022-11-20T15:53:49.978Z,9.80
2022-11-20T15:56:21.061Z,11.90
2022-11-20T15:58:51.130Z,9.20
2022-11-20T16:01:25.894Z,10.70
2022-11-20T16:03:56.279Z,16.70
2022-11-20T16:06:26.666Z,17.70
2022-11-20T16:08:57.325Z,17.00
2022-11-20T16:11:28.473Z,15.70
2022-11-20T16:14:17.670Z,17.50
2022-11-20T16:16:48.453Z,13.80
2022-11-20T16:19:19.513Z,13.60
2022-11-20T16:21:50.186Z,7.50
2022-11-20T16:24:21.419Z,4.60
2022-11-20T16:26:52.428Z,4.20
2022-11-20T16:29:23.192Z,5.00
2022-11-20T16:31:53.495Z,3.40
2022-11-20T16:34:23.697Z,4.20
2022-11-20T16:36:54.627Z,4.00
2022-11-20T16:39:26.786Z,2.80
2022-11-20T16:41:56.889Z,2.10
2022-11-20T16:44:26.177Z,2.20
2022-11-20T16:46:56.922Z,2.30
2022-11-20T16:49:27.317Z,1.70
2022-11-20T16:51:57.801Z,5.40
2022-11-20T16:54:28.154Z,7.30
2022-11-20T16:56:58.623Z,12.50
2022-11-20T16:59:28.817Z,6.60
2022-11-20T17:02:03.294Z,4.50
2022-11-20T17:04:33.324Z,2.10
2022-11-20T17:07:08.028Z,1.00
2022-11-20T17:09:40.600Z,0.50
2022-11-20T17:12:11.045Z,0.40
2022-11-20T17:14:40.917Z,0.40
2022-11-20T17:17:11.003Z,0.40
2022-11-20T17:19:40.898Z,0.70
2022-11-20T17:22:11.131Z,1.30
2022-11-20T17:24:41.489Z,1.60
2022-11-20T17:27:12.040Z,2.40
2022-11-20T17:29:42.394Z,4.90
2022-11-20T17:32:12.495Z,5.60
2022-11-20T17:34:42.171Z,6.60
2022-11-20T17:37:10.996Z,5.90
2022-11-20T17:39:41.345Z,4.90
2022-11-20T17:42:30.572Z,6.80
2022-11-20T17:45:00.522Z,5.30
2022-11-20T17:47:30.480Z,4.70
2022-11-20T17:50:00.283Z,5.50
2022-11-20T17:52:30.921Z,5.50
2022-11-20T17:55:01.153Z,7.50
2022-11-20T17:57:49.980Z,10.70
2022-11-20T18:00:20.997Z,8.60
2022-11-20T18:02:50.419Z,7.00
2022-11-20T18:05:20.481Z,8.40
2022-11-20T18:07:54.347Z,6.50
2022-11-20T18:10:24.484Z,6.30
2022-11-20T18:12:54.349Z,6.30
2022-11-20T18:15:24.504Z,6.50
2022-11-20T18:17:54.598Z,5.40
2022-11-20T18:20:30.185Z,4.50
2022-11-20T18:23:03.222Z,4.70
2022-11-20T18:25:32.867Z,4.40
2022-11-20T18:28:02.547Z,4.30
2022-11-20T18:30:32.968Z,2.90
2022-11-20T18:33:02.021Z,1.80
2022-11-20T18:35:32.427Z,2.20
2022-11-20T18:38:02.884Z,3.80
2022-11-20T18:40:37.047Z,4.20
2022-11-20T18:43:26.184Z,3.90
2022-11-20T18:46:06.081Z,3.70
2022-11-20T18:48:35.647Z,3.90
2022-11-20T18:51:09.053Z,3.50
2022-11-20T18:53:43.055Z,2.60
2022-11-20T18:56:16.938Z,4.40
2022-11-20T18:58:47.614Z,4.30
2022-11-20T19:01:17.911Z,4.70
2022-11-20T19:03:48.229Z,4.90
2022-11-20T19:06:18.557Z,4.80
2022-11-20T19:08:48.854Z,5.50
2022-11-20T19:11:19.986Z,4.70
2022-11-20T19:13:50.309Z,4.10
2022-11-20T19:16:22.970Z,4.20
2022-11-20T19:18:52.997Z,4.90
2022-11-20T19:21:25.722Z,5.10
2022-11-20T19:23:58.733Z,5.00
2022-11-20T19:26:29.781Z,4.30
2022-11-20T19:29:00.267Z,5.70
2022-11-20T19:31:30.648Z,6.30
2022-11-20T19:34:03.060Z,5.80
2022-11-20T19:36:39.164Z,8.00
2022-11-20T19:39:13.321Z,8.20
2022-11-20T19:41:44.129Z,11.50
2022-11-20T19:44:16.026Z,11.10
2022-11-20T19:46:46.108Z,13.40
2022-11-20T19:49:16.208Z,14.80
2022-11-20T19:51:49.274Z,14.40
2022-11-20T19:54:19.975Z,13.00
2022-11-20T19:56:51.091Z,19.70
2022-11-20T19:59:21.555Z,24.70
2022-11-20T20:01:52.763Z,27.80
2022-11-20T20:04:22.548Z,28.90
2022-11-20T20:06:52.509Z,28.30
2022-11-20T20:09:24.144Z,24.30
2022-11-20T20:11:54.416Z,16.20
2022-11-20T20:14:24.745Z,18.20
2022-11-20T20:16:57.172Z,21.40
2022-11-20T20:19:27.604Z,21.60
2022-11-20T20:21:57.540Z,23.00
2022-11-20T20:24:27.974Z,26.40
2022-11-20T20:26:58.591Z,26.00
2022-11-20T20:29:28.846Z,25.50
2022-11-20T20:31:57.710Z,25.60
2022-11-20T20:34:32.467Z,24.10
2022-11-20T20:37:05.648Z,24.00
2022-11-20T20:39:35.617Z,24.10
2022-11-20T20:42:04.447Z,22.80
2022-11-20T20:44:54.562Z,16.10
2022-11-20T20:47:25.081Z,18.60
2022-11-20T20:49:55.448Z,15.80
2022-11-20T20:52:28.401Z,15.80
2022-11-20T20:54:58.997Z,18.70
2022-11-20T20:57:29.670Z,17.10
2022-11-20T21:00:00.140Z,15.40
2022-11-20T21:02:30.686Z,14.90
2022-11-20T21:05:01.286Z,14.50
2022-11-20T21:07:31.552Z,13.70
2022-11-20T21:10:01.891Z,14.50
2022-11-20T21:12:30.854Z,12.90
2022-11-20T21:15:01.088Z,11.80
2022-11-20T21:17:31.354Z,10.50
2022-11-20T21:20:22.406Z,10.70
2022-11-20T21:22:52.350Z,10.60
2022-11-20T21:25:22.578Z,11.40
2022-11-20T21:27:52.916Z,12.90
2022-11-20T21:30:22.922Z,12.60
2022-11-20T21:32:52.823Z,14.60
2022-11-20T21:35:22.805Z,12.60
2022-11-20T21:37:53.090Z,12.60
2022-11-20T21:40:23.107Z,13.70
2022-11-20T21:42:54.455Z,13.60
2022-11-20T21:45:24.508Z,12.70
2022-11-20T21:47:54.791Z,12.80
2022-11-20T21:50:24.990Z,9.60
2022-11-20T21:52:53.724Z,5.10
2022-11-20T21:55:26.995Z,9.90
2022-11-20T21:57:57.280Z,12.50
2022-11-20T22:00:27.730Z,13.70
2022-11-20T22:02:56.579Z,10.30
2022-11-20T22:05:26.929Z,9.20
2022-11-20T22:07:57.347Z,9.50
2022-11-20T22:10:28.387Z,10.40
2022-11-20T22:13:20.072Z,9.90
2022-11-20T22:16:04.614Z,8.20
2022-11-20T22:18:43.640Z,7.40
2022-11-20T22:21:15.374Z,8.40
2022-11-20T22:23:45.679Z,8.00
2022-11-20T22:26:19.195Z,9.00
2022-11-20T22:28:50.111Z,10.70
2022-11-20T22:31:21.747Z,12.40
2022-11-20T22:33:51.528Z,12.60
2022-11-20T22:36:28.756Z,10.50
2022-11-20T22:39:03.650Z,10.60
2022-11-20T22:41:34.257Z,9.80
2022-11-20T22:44:07.044Z,8.70
2022-11-20T22:46:38.957Z,6.90
2022-11-20T22:49:09.454Z,6.30
2022-11-20T22:51:41.413Z,6.80
2022-11-20T22:54:13.263Z,6.70
2022-11-20T22:56:43.979Z,5.60
2022-11-20T22:59:14.141Z,7.20
2022-11-20T23:01:44.555Z,8.00
2022-11-20T23:04:16.611Z,7.20
2022-11-20T23:06:46.585Z,5.60
2022-11-20T23:09:16.209Z,6.10
2022-11-20T23:11:46.198Z,6.10
2022-11-20T23:14:18.131Z,7.50
2022-11-20T23:16:48.186Z,6.60
2022-11-20T23:19:19.495Z,6.40
2022-11-20T23:21:51.068Z,6.20
2022-11-20T23:24:21.135Z,5.80
2022-11-20T23:26:51.667Z,5.90
2022-11-20T23:29:20.564Z,5.70
2022-11-20T23:31:50.714Z,6.30
2022-11-20T23:34:20.975Z,5.80
2022-11-20T23:36:51.061Z,5.90
2022-11-20T23:39:22.448Z,6.60
2022-11-20T23:41:52.050Z,6.90
2022-11-20T23:44:24.036Z,4.80
2022-11-20T23:46:54.344Z,1.90
2022-11-20T23:49:24.586Z,2.20
2022-11-20T23:51:53.749Z,2.10
2022-11-20T23:54:23.856Z,2.60
2022-11-20T23:56:54.077Z,3.60
2022-11-20T23:59:24.116Z,4.30
